createdAt,value
2022-08-07T00:00:03.006Z,15.93
2022-08-07T00:02:35.535Z,15.92
2022-08-07T00:02:36.454Z,15.92
2022-08-07T00:03:03.679Z,15.90
2022-08-07T00:04:03.387Z,15.89
2022-08-07T00:05:03.900Z,15.89
2022-08-07T00:06:02.601Z,15.87
2022-08-07T00:07:05.026Z,15.86
2022-08-07T00:08:02.336Z,15.84
2022-08-07T00:09:16.254Z,15.83
2022-08-07T00:10:25.721Z,15.83
2022-08-07T00:11:29.944Z,15.82
2022-08-07T00:12:03.140Z,15.78
2022-08-07T00:13:09.567Z,15.80
2022-08-07T00:14:03.136Z,15.78
2022-08-07T00:15:02.444Z,15.75
2022-08-07T00:16:02.125Z,15.72
2022-08-07T00:17:02.692Z,15.71
2022-08-07T00:18:02.106Z,15.71
2022-08-07T00:19:02.345Z,15.69
2022-08-07T00:20:03.215Z,15.67
2022-08-07T00:21:56.656Z,15.62
2022-08-07T00:22:03.576Z,15.62
2022-08-07T00:23:02.226Z,15.62
2022-08-07T00:24:01.972Z,15.59
2022-08-07T00:25:02.769Z,15.57
2022-08-07T00:26:13.300Z,15.57
2022-08-07T00:27:07.310Z,15.56
2022-08-07T00:28:03.185Z,15.54
2022-08-07T00:29:01.932Z,15.51
2022-08-07T00:30:02.176Z,15.51
2022-08-07T00:31:22.430Z,15.50
2022-08-07T00:32:02.161Z,15.50
2022-08-07T00:33:02.234Z,15.47
2022-08-07T00:34:02.301Z,15.46
2022-08-07T00:35:02.110Z,15.46
2022-08-07T00:36:02.825Z,15.46
2022-08-07T00:37:02.106Z,15.44
2022-08-07T00:38:01.857Z,15.43
2022-08-07T00:39:02.163Z,15.41
2022-08-07T00:40:01.855Z,15.39
2022-08-07T00:41:22.095Z,15.38
2022-08-07T00:42:05.449Z,15.36
2022-08-07T00:43:02.004Z,15.35
2022-08-07T00:44:02.954Z,15.35
2022-08-07T00:45:01.991Z,15.32
2022-08-07T00:46:02.731Z,15.31
2022-08-07T00:47:01.972Z,15.29
2022-08-07T00:48:09.358Z,15.29
2022-08-07T00:49:03.361Z,15.28
2022-08-07T00:50:21.326Z,15.28
2022-08-07T00:51:22.965Z,15.27
2022-08-07T00:52:02.725Z,15.27
2022-08-07T00:53:01.942Z,15.23
2022-08-07T00:54:01.701Z,15.21
2022-08-07T00:55:04.771Z,15.20
2022-08-07T00:56:04.039Z,15.19
2022-08-07T00:57:02.047Z,15.16
2022-08-07T00:58:01.835Z,15.16
2022-08-07T00:59:02.085Z,15.17
2022-08-07T01:00:01.835Z,15.16
2022-08-07T01:01:22.117Z,15.14
2022-08-07T01:02:01.840Z,15.11
2022-08-07T01:03:01.559Z,15.11
2022-08-07T01:04:01.796Z,15.10
2022-08-07T01:05:02.035Z,15.07
2022-08-07T01:06:01.776Z,15.06
2022-08-07T01:07:01.515Z,15.03
2022-08-07T01:08:01.757Z,15.02
2022-08-07T01:09:01.606Z,14.99
2022-08-07T01:10:06.226Z,14.96
2022-08-07T01:12:04.324Z,14.92
2022-08-07T01:12:27.377Z,14.89
2022-08-07T01:13:02.883Z,14.86
2022-08-07T01:14:01.679Z,14.86
2022-08-07T01:15:03.882Z,14.88
2022-08-07T01:16:05.815Z,14.84
2022-08-07T01:17:04.233Z,14.83
2022-08-07T01:18:02.830Z,14.81
2022-08-07T01:19:01.621Z,14.78
2022-08-07T01:20:01.372Z,14.75
2022-08-07T01:21:22.684Z,14.75
2022-08-07T01:22:03.133Z,14.73
2022-08-07T01:23:12.700Z,14.70
2022-08-07T01:24:04.364Z,14.69
2022-08-07T01:25:05.228Z,14.68
2022-08-07T01:26:03.768Z,14.65
2022-08-07T01:27:02.736Z,14.64
2022-08-07T01:28:02.582Z,14.64
2022-08-07T01:29:01.444Z,14.62
2022-08-07T01:30:01.797Z,14.62
2022-08-07T01:31:21.534Z,14.60
2022-08-07T01:32:05.476Z,14.61
2022-08-07T01:33:03.684Z,14.60
2022-08-07T01:34:02.506Z,14.58
2022-08-07T01:35:02.277Z,14.60
2022-08-07T01:36:06.281Z,14.58
2022-08-07T01:37:03.419Z,14.55
2022-08-07T01:38:03.232Z,14.54
2022-08-07T01:39:04.111Z,14.52
2022-08-07T01:40:03.374Z,14.51
2022-08-07T01:41:26.143Z,14.51
2022-08-07T01:42:36.931Z,14.50
2022-08-07T01:43:03.657Z,14.47
2022-08-07T01:44:03.439Z,14.46
2022-08-07T01:45:03.227Z,14.45
2022-08-07T01:46:01.670Z,14.45
2022-08-07T01:48:16.486Z,14.43
2022-08-07T01:48:20.331Z,14.43
2022-08-07T01:49:03.539Z,14.43
2022-08-07T01:50:03.314Z,14.43
2022-08-07T01:52:00.923Z,14.43
2022-08-07T01:52:04.844Z,14.43
2022-08-07T01:53:08.913Z,14.42
2022-08-07T01:54:12.761Z,14.42
2022-08-07T01:55:04.378Z,14.39
2022-08-07T01:56:03.153Z,14.37
2022-08-07T01:57:02.163Z,14.37
2022-08-07T01:58:06.625Z,14.37
2022-08-07T01:59:03.750Z,14.37
2022-08-07T02:00:03.315Z,14.36
2022-08-07T02:01:25.603Z,14.35
2022-08-07T02:02:04.376Z,14.36
2022-08-07T02:03:12.172Z,14.36
2022-08-07T02:04:02.958Z,14.36
2022-08-07T02:05:04.700Z,14.35
2022-08-07T02:06:02.590Z,14.33
2022-08-07T02:07:03.389Z,14.32
2022-08-07T02:08:02.163Z,14.29
2022-08-07T02:09:04.197Z,14.29
2022-08-07T02:10:02.806Z,14.27
2022-08-07T02:11:30.750Z,14.28
2022-08-07T02:12:05.277Z,14.28
2022-08-07T02:13:01.803Z,14.27
2022-08-07T02:14:02.553Z,14.25
2022-08-07T02:15:06.682Z,14.22
2022-08-07T02:16:01.772Z,14.21
2022-08-07T02:17:03.249Z,14.20
2022-08-07T02:18:02.983Z,14.20
2022-08-07T02:19:01.878Z,14.18
2022-08-07T02:20:04.155Z,14.17
2022-08-07T02:21:21.944Z,14.17
2022-08-07T02:22:01.738Z,14.17
2022-08-07T02:23:02.066Z,14.14
2022-08-07T02:24:02.926Z,14.14
2022-08-07T02:25:02.215Z,14.12
2022-08-07T02:26:31.941Z,14.12
2022-08-07T02:27:03.894Z,14.12
2022-08-07T02:28:02.166Z,14.12
2022-08-07T02:29:02.536Z,14.12
2022-08-07T02:30:04.013Z,14.10
2022-08-07T02:31:28.519Z,14.09
2022-08-07T02:32:03.061Z,14.09
2022-08-07T02:33:09.408Z,14.09
2022-08-07T02:34:11.461Z,14.06
2022-08-07T02:35:03.839Z,14.06
2022-08-07T02:36:29.323Z,14.04
2022-08-07T02:37:01.477Z,14.03
2022-08-07T02:38:03.013Z,14.03
2022-08-07T02:39:09.179Z,14.02
2022-08-07T02:40:31.061Z,14.00
2022-08-07T02:41:22.108Z,14.00
2022-08-07T02:42:01.965Z,13.99
2022-08-07T02:43:01.736Z,13.97
2022-08-07T02:44:03.526Z,13.97
2022-08-07T02:45:11.992Z,13.96
2022-08-07T02:46:02.885Z,13.92
2022-08-07T02:47:02.710Z,13.92
2022-08-07T02:48:01.802Z,13.91
2022-08-07T02:49:03.355Z,13.91
2022-08-07T02:50:02.637Z,13.89
2022-08-07T02:51:42.038Z,13.89
2022-08-07T02:52:02.388Z,13.88
2022-08-07T02:53:03.372Z,13.87
2022-08-07T02:54:01.769Z,13.85
2022-08-07T02:55:01.591Z,13.84
2022-08-07T02:56:05.886Z,13.84
2022-08-07T02:57:03.640Z,13.81
2022-08-07T02:58:00.707Z,13.78
2022-08-07T02:59:02.590Z,13.79
2022-08-07T03:00:05.046Z,13.78
2022-08-07T03:01:36.672Z,13.77
2022-08-07T03:02:03.458Z,13.75
2022-08-07T03:03:06.042Z,13.71
2022-08-07T03:04:03.492Z,13.70
2022-08-07T03:05:05.109Z,13.70
2022-08-07T03:06:02.438Z,13.64
2022-08-07T03:07:07.371Z,13.62
2022-08-07T03:08:05.226Z,13.62
2022-08-07T03:09:03.551Z,13.60
2022-08-07T03:10:02.305Z,13.60
2022-08-07T03:11:20.642Z,13.55
2022-08-07T03:12:02.737Z,13.55
2022-08-07T03:13:01.590Z,13.52
2022-08-07T03:14:02.363Z,13.54
2022-08-07T03:15:02.348Z,13.52
2022-08-07T03:16:02.621Z,13.52
2022-08-07T03:17:04.447Z,13.51
2022-08-07T03:18:02.214Z,13.51
2022-08-07T03:19:01.491Z,13.48
2022-08-07T03:20:02.367Z,13.48
2022-08-07T03:21:20.175Z,13.49
2022-08-07T03:22:00.502Z,13.49
2022-08-07T03:23:02.406Z,13.48
2022-08-07T03:24:19.629Z,13.46
2022-08-07T03:25:02.492Z,13.44
2022-08-07T03:26:02.267Z,13.42
2022-08-07T03:27:02.102Z,13.42
2022-08-07T03:28:09.797Z,13.42
2022-08-07T03:29:02.491Z,13.41
2022-08-07T03:30:03.799Z,13.41
2022-08-07T03:31:24.550Z,13.38
2022-08-07T03:32:02.510Z,13.38
2022-08-07T03:33:02.266Z,13.38
2022-08-07T03:34:02.028Z,13.38
2022-08-07T03:35:17.535Z,13.36
2022-08-07T03:36:02.483Z,13.33
2022-08-07T03:37:01.178Z,13.33
2022-08-07T03:38:02.361Z,13.32
2022-08-07T03:39:05.445Z,13.32
2022-08-07T03:40:14.897Z,13.32
2022-08-07T03:41:21.327Z,13.30
2022-08-07T03:42:02.530Z,13.30
2022-08-07T03:43:02.370Z,13.28
2022-08-07T03:44:02.142Z,13.26
2022-08-07T03:45:01.920Z,13.25
2022-08-07T03:46:02.802Z,13.23
2022-08-07T03:47:13.029Z,13.20
2022-08-07T03:48:02.341Z,13.20
2022-08-07T03:49:03.418Z,13.19
2022-08-07T03:50:00.123Z,13.19
2022-08-07T03:51:20.741Z,13.17
2022-08-07T03:52:02.155Z,13.17
2022-08-07T03:53:01.731Z,13.19
2022-08-07T03:54:33.156Z,13.17
2022-08-07T03:55:06.518Z,13.14
2022-08-07T03:56:04.062Z,13.14
2022-08-07T03:57:07.235Z,13.12
2022-08-07T03:58:34.772Z,13.12
2022-08-07T03:59:13.155Z,13.12
2022-08-07T04:00:04.079Z,13.11
2022-08-07T04:01:22.410Z,13.10
2022-08-07T04:02:02.039Z,13.08
2022-08-07T04:03:03.878Z,13.07
2022-08-07T04:04:04.832Z,13.05
2022-08-07T04:05:00.889Z,13.05
2022-08-07T04:06:00.089Z,13.05
2022-08-07T04:07:02.023Z,13.04
2022-08-07T04:08:02.046Z,13.04
2022-08-07T04:09:01.863Z,13.03
2022-08-07T04:10:02.905Z,13.03
2022-08-07T04:12:25.107Z,13.03
2022-08-07T04:12:26.431Z,13.03
2022-08-07T04:13:02.781Z,13.01
2022-08-07T04:14:10.207Z,13.01
2022-08-07T04:15:02.058Z,13.03
2022-08-07T04:16:01.827Z,13.03
2022-08-07T04:17:03.137Z,13.01
2022-08-07T04:18:31.410Z,13.01
2022-08-07T04:19:04.061Z,13.00
2022-08-07T04:20:01.916Z,12.97
2022-08-07T04:21:19.769Z,12.97
2022-08-07T04:22:08.694Z,12.96
2022-08-07T04:23:06.289Z,12.96
2022-08-07T04:24:07.573Z,12.96
2022-08-07T04:25:02.768Z,12.96
2022-08-07T04:26:00.285Z,12.97
2022-08-07T04:27:01.836Z,12.95
2022-08-07T04:28:01.709Z,12.95
2022-08-07T04:29:00.881Z,12.97
2022-08-07T04:30:04.911Z,12.97
2022-08-07T04:31:20.476Z,13.00
2022-08-07T04:32:10.040Z,12.97
2022-08-07T04:33:01.781Z,13.00
2022-08-07T04:34:02.621Z,13.01
2022-08-07T04:35:01.409Z,13.03
2022-08-07T04:36:02.271Z,13.01
2022-08-07T04:36:59.624Z,13.03
2022-08-07T04:38:06.517Z,13.03
2022-08-07T04:39:00.124Z,13.04
2022-08-07T04:40:00.549Z,13.07
2022-08-07T04:41:19.409Z,13.08
2022-08-07T04:41:59.972Z,13.08
2022-08-07T04:43:03.366Z,13.10
2022-08-07T04:44:12.056Z,13.11
2022-08-07T04:45:02.912Z,13.11
2022-08-07T04:46:02.363Z,13.12
2022-08-07T04:47:08.120Z,13.15
2022-08-07T04:48:10.584Z,13.19
2022-08-07T04:48:59.884Z,13.20
2022-08-07T04:50:04.575Z,13.23
2022-08-07T04:51:19.747Z,13.23
2022-08-07T04:52:02.541Z,13.25
2022-08-07T04:53:03.139Z,13.26
2022-08-07T04:54:05.407Z,13.28
2022-08-07T04:55:02.378Z,13.28
2022-08-07T04:58:10.080Z,13.29
2022-08-07T04:58:11.333Z,13.30
2022-08-07T04:58:14.875Z,13.33
2022-08-07T05:00:09.632Z,13.36
2022-08-07T05:01:20.388Z,13.38
2022-08-07T05:01:59.989Z,13.38
2022-08-07T05:03:00.342Z,13.38
2022-08-07T05:04:07.658Z,13.39
2022-08-07T05:04:59.969Z,13.39
2022-08-07T05:06:01.280Z,13.41
2022-08-07T05:07:00.475Z,13.39
2022-08-07T05:08:00.094Z,13.39
2022-08-07T05:09:02.538Z,13.39
2022-08-07T05:10:01.154Z,13.39
2022-08-07T05:11:24.379Z,13.41
2022-08-07T05:12:02.538Z,13.41
2022-08-07T05:14:44.551Z,13.41
2022-08-07T05:14:55.031Z,13.42
2022-08-07T05:15:03.494Z,13.46
2022-08-07T05:16:04.568Z,13.46
2022-08-07T05:17:00.913Z,13.48
2022-08-07T05:18:08.784Z,13.49
2022-08-07T05:19:00.963Z,13.52
2022-08-07T05:20:01.206Z,13.57
2022-08-07T05:22:00.473Z,13.62
2022-08-07T05:22:01.562Z,13.63
2022-08-07T05:23:01.201Z,13.66
2022-08-07T05:24:00.951Z,13.67
2022-08-07T05:25:00.415Z,13.71
2022-08-07T05:26:13.491Z,13.75
2022-08-07T05:26:59.938Z,13.78
2022-08-07T05:28:15.914Z,13.81
2022-08-07T05:29:00.009Z,13.84
2022-08-07T05:30:01.035Z,13.87
2022-08-07T05:31:18.854Z,13.91
2022-08-07T05:32:01.046Z,13.92
2022-08-07T05:32:59.560Z,13.97
2022-08-07T05:34:05.589Z,13.99
2022-08-07T05:35:02.206Z,14.02
2022-08-07T05:36:01.128Z,14.03
2022-08-07T05:36:59.937Z,14.07
2022-08-07T05:38:08.359Z,14.10
2022-08-07T05:40:05.948Z,14.15
2022-08-07T05:40:13.850Z,14.12
2022-08-07T05:41:21.966Z,14.20
2022-08-07T05:42:01.751Z,14.22
2022-08-07T05:42:59.853Z,14.25
2022-08-07T05:44:12.298Z,14.28
2022-08-07T05:45:14.370Z,14.33
2022-08-07T05:45:59.989Z,14.33
2022-08-07T05:47:00.264Z,14.36
2022-08-07T05:48:02.733Z,14.37
2022-08-07T05:48:59.874Z,14.42
2022-08-07T05:50:00.670Z,14.46
2022-08-07T05:51:18.981Z,14.51
2022-08-07T05:52:00.671Z,14.52
2022-08-07T05:53:00.950Z,14.58
2022-08-07T05:54:13.382Z,14.62
2022-08-07T05:55:10.347Z,14.65
2022-08-07T05:56:03.700Z,14.69
2022-08-07T05:57:01.711Z,14.73
2022-08-07T05:58:00.483Z,14.78
2022-08-07T05:59:00.733Z,14.81
2022-08-07T06:00:01.172Z,14.88
2022-08-07T06:01:18.850Z,14.94
2022-08-07T06:01:59.935Z,14.98
2022-08-07T06:03:00.797Z,15.02
2022-08-07T06:04:01.296Z,15.07
2022-08-07T06:05:00.713Z,15.11
2022-08-07T06:06:00.563Z,15.14
2022-08-07T06:07:03.444Z,15.19
2022-08-07T06:08:05.314Z,15.21
2022-08-07T06:08:59.807Z,15.28
2022-08-07T06:10:05.598Z,15.31
2022-08-07T06:11:19.523Z,15.36
2022-08-07T06:12:00.718Z,15.38
2022-08-07T06:12:59.490Z,15.46
2022-08-07T06:14:12.888Z,15.54
2022-08-07T06:15:05.627Z,15.64
2022-08-07T06:16:01.330Z,15.72
2022-08-07T06:17:00.603Z,15.82
2022-08-07T06:18:00.362Z,15.92
2022-08-07T06:18:59.129Z,16.01
2022-08-07T06:20:04.215Z,16.09
2022-08-07T06:22:14.542Z,16.30
2022-08-07T06:22:15.646Z,16.24
2022-08-07T06:23:02.341Z,16.38
2022-08-07T06:24:37.989Z,16.46
2022-08-07T06:25:01.598Z,16.57
2022-08-07T06:26:00.517Z,16.64
2022-08-07T06:27:00.284Z,16.76
2022-08-07T06:28:01.990Z,16.85
2022-08-07T06:29:01.137Z,17.00
2022-08-07T06:29:59.620Z,17.12
2022-08-07T06:31:18.440Z,17.26
2022-08-07T06:32:00.160Z,17.33
2022-08-07T06:33:00.420Z,17.41
2022-08-07T06:34:00.194Z,17.52
2022-08-07T06:35:00.461Z,17.64
2022-08-07T06:36:12.158Z,17.77
2022-08-07T06:37:02.714Z,17.89
2022-08-07T06:38:00.351Z,17.96
2022-08-07T06:40:15.907Z,18.05
2022-08-07T06:40:17.019Z,18.15
2022-08-07T06:41:29.337Z,18.33
2022-08-07T06:42:03.281Z,18.39
2022-08-07T06:43:00.241Z,18.50
2022-08-07T06:44:06.568Z,18.58
2022-08-07T06:44:59.361Z,18.67
2022-08-07T06:46:00.932Z,18.73
2022-08-07T06:47:10.577Z,18.82
2022-08-07T06:48:00.017Z,18.88
2022-08-07T06:49:00.180Z,18.92
2022-08-07T06:49:59.049Z,18.95
2022-08-07T06:51:31.157Z,19.04
2022-08-07T06:52:07.478Z,19.04
2022-08-07T06:52:59.938Z,19.07
2022-08-07T06:55:28.350Z,19.10
2022-08-07T06:55:33.157Z,19.25
2022-08-07T06:56:01.995Z,19.33
2022-08-07T06:56:59.991Z,19.43
2022-08-07T06:57:59.499Z,19.56
2022-08-07T07:00:12.291Z,19.76
2022-08-07T07:00:13.244Z,19.66
2022-08-07T07:01:19.129Z,19.88
2022-08-07T07:01:59.288Z,19.95
2022-08-07T07:03:01.135Z,20.01
2022-08-07T07:04:08.259Z,20.10
2022-08-07T07:04:59.932Z,20.21
2022-08-07T07:06:03.252Z,20.28
2022-08-07T07:07:01.889Z,20.32
2022-08-07T07:08:06.347Z,20.42
2022-08-07T07:08:59.853Z,20.57
2022-08-07T07:10:00.010Z,20.73
2022-08-07T07:12:06.848Z,20.74
2022-08-07T07:12:10.634Z,20.79
2022-08-07T07:12:58.164Z,20.85
2022-08-07T07:14:02.512Z,20.91
2022-08-07T07:14:58.185Z,21.04
2022-08-07T07:15:57.907Z,21.16
2022-08-07T07:16:57.636Z,21.34
2022-08-07T07:17:58.065Z,21.49
2022-08-07T07:18:57.633Z,21.67
2022-08-07T07:19:59.143Z,21.80
2022-08-07T07:21:19.339Z,21.80
2022-08-07T07:22:12.242Z,21.84
2022-08-07T07:24:08.870Z,21.99
2022-08-07T07:24:08.993Z,21.98
2022-08-07T07:25:03.070Z,22.06
2022-08-07T07:26:35.720Z,22.12
2022-08-07T07:26:59.030Z,22.24
2022-08-07T07:28:02.771Z,22.33
2022-08-07T07:29:40.117Z,22.49
2022-08-07T07:30:09.103Z,22.64
2022-08-07T07:31:21.422Z,22.82
2022-08-07T07:31:57.531Z,22.90
2022-08-07T07:32:57.760Z,23.02
2022-08-07T07:33:57.532Z,23.09
2022-08-07T07:34:57.753Z,23.15
2022-08-07T07:36:05.503Z,23.23
2022-08-07T07:36:57.943Z,23.38
2022-08-07T07:38:02.710Z,23.50
2022-08-07T07:38:58.468Z,23.61
2022-08-07T07:39:57.714Z,23.72
2022-08-07T07:41:17.461Z,23.78
2022-08-07T07:42:12.879Z,23.75
2022-08-07T07:42:57.856Z,23.73
2022-08-07T07:44:16.775Z,23.76
2022-08-07T07:44:58.347Z,23.80
2022-08-07T07:46:36.618Z,23.76
2022-08-07T07:47:13.496Z,23.83
2022-08-07T07:47:57.794Z,23.79
2022-08-07T07:49:08.797Z,23.87
2022-08-07T07:50:34.880Z,23.88
2022-08-07T07:51:18.528Z,24.15
2022-08-07T07:51:58.165Z,24.16
2022-08-07T07:52:57.538Z,24.18
2022-08-07T07:53:57.288Z,24.25
2022-08-07T07:54:57.550Z,24.40
2022-08-07T07:56:00.521Z,24.50
2022-08-07T07:56:57.642Z,24.55
2022-08-07T07:57:58.434Z,24.60
2022-08-07T07:58:57.540Z,24.71
2022-08-07T07:59:57.268Z,24.85
2022-08-07T08:02:01.635Z,25.13
2022-08-07T08:02:05.091Z,25.05
2022-08-07T08:03:04.656Z,25.23
2022-08-07T08:04:11.018Z,25.36
2022-08-07T08:05:00.344Z,25.52
2022-08-07T08:05:57.171Z,25.58
2022-08-07T08:07:02.877Z,25.73
2022-08-07T08:08:00.934Z,25.80
2022-08-07T08:08:57.425Z,25.87
2022-08-07T08:10:04.908Z,25.87
2022-08-07T08:11:59.492Z,26.07
2022-08-07T08:12:03.006Z,26.12
2022-08-07T08:12:59.965Z,26.15
2022-08-07T08:13:57.118Z,26.13
2022-08-07T08:14:57.367Z,26.02
2022-08-07T08:15:58.144Z,26.02
2022-08-07T08:16:57.340Z,25.98
2022-08-07T08:17:58.767Z,26.02
2022-08-07T08:18:58.274Z,26.12
2022-08-07T08:20:22.357Z,25.97
2022-08-07T08:21:19.010Z,26.15
2022-08-07T08:22:03.696Z,26.30
2022-08-07T08:22:58.207Z,26.58
2022-08-07T08:23:57.462Z,26.88
2022-08-07T08:25:18.546Z,27.22
2022-08-07T08:25:57.401Z,27.46
2022-08-07T08:26:57.152Z,27.72
2022-08-07T08:28:01.761Z,27.85
2022-08-07T08:28:58.150Z,27.96
2022-08-07T08:29:56.983Z,28.03
2022-08-07T08:31:30.160Z,28.27
2022-08-07T08:32:17.186Z,28.34
2022-08-07T08:32:58.098Z,28.74
2022-08-07T08:33:57.110Z,29.04
2022-08-07T08:34:57.091Z,29.41
2022-08-07T08:35:57.773Z,29.74
2022-08-07T08:36:57.917Z,29.87
2022-08-07T08:38:01.508Z,30.07
2022-08-07T08:38:58.156Z,30.16
2022-08-07T08:39:58.495Z,30.38
2022-08-07T08:41:18.108Z,30.75
2022-08-07T08:41:59.162Z,30.83
2022-08-07T08:42:57.133Z,31.02
2022-08-07T08:43:59.309Z,31.06
2022-08-07T08:44:57.117Z,30.76
2022-08-07T08:45:59.028Z,30.67
2022-08-07T08:46:57.109Z,30.91
2022-08-07T08:47:56.850Z,30.99
2022-08-07T08:48:57.101Z,31.12
2022-08-07T08:50:04.746Z,31.34
2022-08-07T08:51:26.041Z,31.73
2022-08-07T08:52:13.942Z,31.92
2022-08-07T08:52:57.131Z,32.21
2022-08-07T08:53:56.901Z,32.33
2022-08-07T08:54:56.615Z,32.47
2022-08-07T08:55:58.868Z,32.04
2022-08-07T08:56:56.633Z,31.95
2022-08-07T08:57:56.898Z,31.89
2022-08-07T08:58:56.634Z,32.10
2022-08-07T08:59:57.291Z,32.11
2022-08-07T09:01:18.672Z,32.10
2022-08-07T09:01:59.603Z,32.18
2022-08-07T09:02:57.730Z,32.06
2022-08-07T09:03:57.022Z,32.04
2022-08-07T09:04:56.765Z,32.04
2022-08-07T09:05:56.516Z,32.10
2022-08-07T09:06:56.776Z,32.11
2022-08-07T09:07:58.209Z,32.37
2022-08-07T09:08:56.767Z,32.55
2022-08-07T09:09:57.157Z,32.81
2022-08-07T09:11:24.535Z,33.07
2022-08-07T09:12:08.912Z,33.18
2022-08-07T09:12:57.689Z,33.16
2022-08-07T09:13:56.440Z,33.35
2022-08-07T09:14:58.909Z,33.57
2022-08-07T09:16:24.188Z,33.81
2022-08-07T09:16:56.872Z,33.94
2022-08-07T09:17:59.425Z,34.37
2022-08-07T09:18:58.442Z,34.70
2022-08-07T09:19:56.650Z,35.04
2022-08-07T09:21:57.640Z,35.22
2022-08-07T09:22:09.781Z,35.37
2022-08-07T09:24:33.254Z,34.89
2022-08-07T09:24:34.976Z,35.44
2022-08-07T09:25:00.317Z,34.99
2022-08-07T09:25:57.546Z,35.02
2022-08-07T09:26:57.170Z,35.11
2022-08-07T09:28:00.978Z,35.15
2022-08-07T09:30:03.263Z,34.84
2022-08-07T09:30:05.650Z,35.14
2022-08-07T09:31:19.568Z,34.96
2022-08-07T09:31:56.329Z,35.10
2022-08-07T09:32:56.586Z,35.29
2022-08-07T09:33:57.397Z,35.56
2022-08-07T09:34:56.578Z,35.78
2022-08-07T09:36:04.125Z,35.89
2022-08-07T09:36:57.564Z,35.85
2022-08-07T09:37:56.292Z,35.72
2022-08-07T09:38:56.552Z,36.00
2022-08-07T09:39:57.875Z,35.97
2022-08-07T09:41:18.515Z,35.97
2022-08-07T09:41:59.125Z,35.94
2022-08-07T09:42:56.604Z,35.85
2022-08-07T09:44:05.630Z,35.78
2022-08-07T09:47:27.604Z,35.74
2022-08-07T09:47:51.831Z,35.82
2022-08-07T09:47:52.607Z,36.09
2022-08-07T09:48:02.398Z,36.20
2022-08-07T09:50:02.360Z,36.50
2022-08-07T09:50:02.458Z,36.35
2022-08-07T09:52:15.551Z,36.12
2022-08-07T09:52:15.973Z,36.44
2022-08-07T09:52:56.507Z,35.99
2022-08-07T09:54:00.611Z,35.87
2022-08-07T09:54:57.003Z,35.85
2022-08-07T09:56:04.703Z,35.84
2022-08-07T09:56:57.509Z,36.03
2022-08-07T09:57:56.246Z,35.90
2022-08-07T09:58:56.000Z,35.93
2022-08-07T10:00:00.694Z,35.99
2022-08-07T10:01:51.843Z,35.93
2022-08-07T10:01:56.416Z,36.09
2022-08-07T10:02:56.566Z,36.25
2022-08-07T10:04:05.572Z,36.25
2022-08-07T10:04:57.447Z,36.15
2022-08-07T10:06:00.052Z,36.41
2022-08-07T10:06:57.644Z,36.69
2022-08-07T10:07:55.937Z,37.29
2022-08-07T10:08:56.136Z,37.00
2022-08-07T10:10:00.217Z,37.22
2022-08-07T10:12:01.395Z,37.88
2022-08-07T10:12:01.518Z,37.55
2022-08-07T10:12:57.071Z,38.28
2022-08-07T10:14:01.735Z,38.44
2022-08-07T10:14:57.036Z,38.61
2022-08-07T10:15:55.773Z,38.74
2022-08-07T10:16:56.039Z,38.87
2022-08-07T10:18:01.494Z,38.86
2022-08-07T10:18:57.015Z,38.95
2022-08-07T10:19:55.768Z,38.65
2022-08-07T10:21:50.558Z,38.56
2022-08-07T10:22:15.384Z,38.22
2022-08-07T10:22:56.199Z,38.01
2022-08-07T10:24:04.877Z,37.91
2022-08-07T10:24:57.410Z,37.70
2022-08-07T10:25:55.972Z,37.76
2022-08-07T10:26:55.715Z,37.57
2022-08-07T10:27:56.142Z,37.28
2022-08-07T10:28:55.706Z,37.51
2022-08-07T10:29:55.977Z,37.57
2022-08-07T10:31:15.719Z,37.55
2022-08-07T10:32:02.433Z,37.66
2022-08-07T10:33:00.051Z,37.60
2022-08-07T10:34:06.136Z,37.67
2022-08-07T10:34:56.088Z,37.55
2022-08-07T10:36:05.147Z,37.43
2022-08-07T10:36:56.828Z,36.90
2022-08-07T10:38:15.547Z,36.76
2022-08-07T10:38:56.076Z,36.59
2022-08-07T10:40:03.493Z,36.53
2022-08-07T10:41:54.687Z,36.78
2022-08-07T10:42:01.665Z,36.81
2022-08-07T10:42:56.791Z,36.57
2022-08-07T10:44:02.293Z,36.51
2022-08-07T10:44:56.784Z,36.83
2022-08-07T10:45:58.190Z,37.09
2022-08-07T10:46:55.774Z,37.31
2022-08-07T10:47:59.864Z,37.55
2022-08-07T10:48:56.790Z,38.00
2022-08-07T10:49:55.569Z,38.20
2022-08-07T10:51:16.942Z,38.61
2022-08-07T10:52:01.926Z,38.98
2022-08-07T10:52:58.634Z,38.95
2022-08-07T10:54:00.237Z,38.91
2022-08-07T10:55:01.468Z,39.16
2022-08-07T10:55:58.422Z,39.32
2022-08-07T10:56:55.738Z,39.41
2022-08-07T10:57:56.284Z,39.44
2022-08-07T10:58:59.456Z,38.41
2022-08-07T10:59:55.499Z,37.13
2022-08-07T11:01:16.314Z,37.46
2022-08-07T11:02:04.765Z,37.78
2022-08-07T11:03:04.785Z,38.00
2022-08-07T11:04:23.263Z,38.31
2022-08-07T11:04:58.811Z,38.54
2022-08-07T11:05:55.620Z,38.68
2022-08-07T11:06:55.333Z,38.68
2022-08-07T11:07:59.589Z,39.01
2022-08-07T11:08:58.270Z,39.09
2022-08-07T11:10:10.363Z,39.17
2022-08-07T11:12:32.011Z,39.09
2022-08-07T11:12:36.513Z,39.13
2022-08-07T11:14:42.665Z,38.95
2022-08-07T11:14:57.400Z,39.03
2022-08-07T11:15:37.250Z,38.86
2022-08-07T11:16:36.016Z,39.07
2022-08-07T11:17:42.749Z,39.23
2022-08-07T11:18:37.004Z,39.32
2022-08-07T11:20:52.755Z,39.11
2022-08-07T11:21:00.441Z,38.66
2022-08-07T11:22:32.502Z,38.06
2022-08-07T11:23:01.969Z,37.41
2022-08-07T11:24:01.267Z,36.47
2022-08-07T11:25:04.310Z,35.40
2022-08-07T11:26:06.420Z,34.43
2022-08-07T11:27:02.119Z,33.69
2022-08-07T11:28:03.990Z,33.34
2022-08-07T11:29:00.174Z,33.19
2022-08-07T11:30:17.585Z,32.99
2022-08-07T11:31:02.198Z,32.87
2022-08-07T11:32:25.501Z,32.72
2022-08-07T11:33:01.709Z,32.52
2022-08-07T11:34:01.032Z,32.44
2022-08-07T11:35:00.799Z,32.40
2022-08-07T11:36:01.581Z,32.33
2022-08-07T11:37:00.642Z,32.25
2022-08-07T11:38:10.184Z,32.19
2022-08-07T11:39:01.963Z,32.11
2022-08-07T11:40:00.262Z,32.06
2022-08-07T11:41:02.022Z,31.96
2022-08-07T11:42:19.217Z,31.86
2022-08-07T11:43:01.776Z,31.84
2022-08-07T11:44:12.740Z,31.85
2022-08-07T11:45:01.128Z,31.72
2022-08-07T11:46:00.940Z,31.57
2022-08-07T11:47:00.741Z,31.58
2022-08-07T11:48:03.382Z,31.50
2022-08-07T11:49:49.986Z,31.43
2022-08-07T11:50:32.436Z,31.41
2022-08-07T11:51:00.336Z,31.26
2022-08-07T11:52:18.710Z,30.34
2022-08-07T11:53:01.832Z,30.08
2022-08-07T11:54:02.123Z,29.90
2022-08-07T11:55:01.274Z,29.97
2022-08-07T11:56:09.137Z,29.95
2022-08-07T11:57:00.611Z,29.97
2022-08-07T11:58:01.704Z,30.04
2022-08-07T11:59:00.666Z,30.08
2022-08-07T12:00:11.670Z,30.17
2022-08-07T12:01:04.248Z,30.34
2022-08-07T12:02:20.916Z,30.34
2022-08-07T12:03:01.286Z,30.32
2022-08-07T12:04:00.618Z,30.22
2022-08-07T12:04:58.824Z,30.20
2022-08-07T12:05:59.479Z,30.17
2022-08-07T12:07:02.403Z,30.04
2022-08-07T12:08:04.113Z,29.92
2022-08-07T12:08:58.796Z,29.94
2022-08-07T12:09:58.546Z,29.94
2022-08-07T12:11:08.414Z,29.94
2022-08-07T12:12:21.582Z,29.87
2022-08-07T12:12:58.870Z,29.79
2022-08-07T12:13:58.616Z,29.60
2022-08-07T12:15:00.604Z,29.48
2022-08-07T12:16:06.875Z,29.26
2022-08-07T12:16:59.459Z,29.12
2022-08-07T12:18:03.164Z,29.14
2022-08-07T12:18:59.360Z,29.00
2022-08-07T12:20:04.853Z,29.00
2022-08-07T12:20:59.342Z,28.85
2022-08-07T12:22:37.096Z,28.71
2022-08-07T12:22:59.347Z,28.59
2022-08-07T12:24:07.673Z,28.40
2022-08-07T12:25:02.610Z,28.27
2022-08-07T12:26:21.763Z,28.14
2022-08-07T12:26:59.329Z,27.96
2022-08-07T12:28:09.546Z,27.84
2022-08-07T12:29:00.632Z,27.88
2022-08-07T12:29:58.546Z,27.92
2022-08-07T12:30:58.296Z,27.94
2022-08-07T12:32:20.587Z,28.00
2022-08-07T12:32:58.362Z,28.03
2022-08-07T12:34:01.989Z,28.00
2022-08-07T12:34:59.371Z,27.94
2022-08-07T12:36:02.376Z,28.00
2022-08-07T12:36:58.742Z,27.93
2022-08-07T12:38:09.661Z,27.77
2022-08-07T12:38:59.465Z,27.55
2022-08-07T12:39:58.161Z,27.25
2022-08-07T12:40:58.377Z,27.21
2022-08-07T12:42:22.870Z,26.97
2022-08-07T12:42:59.379Z,26.77
2022-08-07T12:44:01.460Z,26.72
2022-08-07T12:44:59.387Z,26.65
2022-08-07T12:45:58.132Z,26.50
2022-08-07T12:46:58.400Z,26.45
2022-08-07T12:47:58.147Z,26.43
2022-08-07T12:48:58.388Z,26.44
2022-08-07T12:50:04.687Z,26.52
2022-08-07T12:50:59.382Z,26.63
2022-08-07T12:52:21.162Z,26.70
2022-08-07T12:52:58.405Z,26.73
2022-08-07T12:54:03.418Z,26.77